Time;durP1;ratioP1;P1;durP2;ratioP2;P2;SDS_P1;SDS_P2;PMS_P1;PMS_P2;Temp;Humidity;BMP_temperature;BMP_pressure;BME280_temperature;BME280_humidity;BME280_pressure;Samples;Min_cycle;Max_cycle;Signal;HPM_P1;HPM_P2
2023/09/20 00:00:46;;;;;;;8.13;2.47;;;;;;;;;;4995863;28;20155;-48
2023/09/20 00:03:40;;;;;;;10.07;2.10;;;;;;;;;;4992365;28;20813;-50
2023/09/20 00:06:27;;;;;;;8.82;1.45;;;;;;;;;;5000641;28;20578;-47
2023/09/20 00:09:21;;;;;;;10.48;2.08;;;;;;;;;;4997412;28;20063;-51
2023/09/20 00:12:09;;;;;;;6.40;1.52;;;;;;;;;;4996999;28;20149;-63
2023/09/20 00:15:02;;;;;;;6.53;1.80;;;;;;;;;;4997084;28;20065;-65
2023/09/20 00:17:49;;;;;;;8.40;1.60;;;;;;;;;;4995572;28;20108;-65
2023/09/20 00:20:51;;;;;;;2.05;1.20;;;;;;;;;;4994543;28;20081;-64
2023/09/20 00:23:37;;;;;;;3.15;1.50;;;;;;;;;;4995301;28;20119;-65
2023/09/20 00:26:35;;;;;;;8.38;1.90;;;;;;;;;;4996463;28;20054;-58
2023/09/20 00:29:24;;;;;;;9.30;1.73;;;;;;;;;;4997331;28;20072;-65
2023/09/20 00:32:17;;;;;;;3.20;1.58;;;;;;;;;;4991734;28;20100;-65
2023/09/20 00:35:03;;;;;;;7.72;2.38;;;;;;;;;;4997066;28;20141;-64
2023/09/20 00:37:57;;;;;;;8.60;1.55;;;;;;;;;;4996534;28;20521;-65
2023/09/20 00:40:47;;;;;;;5.90;1.48;;;;;;;;;;4991835;28;20226;-64
2023/09/20 00:43:38;;;;;;;11.55;2.15;;;;;;;;;;4987379;28;20901;-55
2023/09/20 00:46:26;;;;;;;4.22;1.38;;;;;;;;;;4982136;28;20531;-65
2023/09/20 00:49:20;;;;;;;6.68;1.90;;;;;;;;;;4989203;28;20879;-62
2023/09/20 00:52:08;;;;;;;7.60;2.22;;;;;;;;;;4997672;28;20062;-63
2023/09/20 00:54:43;;;;;;;3.05;1.90;;;;;;;;;;4994545;28;20121;-63
2023/09/20 00:57:31;;;;;;;10.20;2.35;;;;;;;;;;4994805;28;20643;-62
2023/09/20 01:00:27;;;;;;;8.68;1.75;;;;;;;;;;4998197;28;20054;-62
2023/09/20 01:03:18;;;;;;;8.88;2.17;;;;;;;;;;5001472;28;20045;-62
2023/09/20 01:06:08;;;;;;;6.00;2.10;;;;;;;;;;4996823;28;20140;-62
2023/09/20 01:09:00;;;;;;;8.25;1.77;;;;;;;;;;4989179;28;20065;-62
2023/09/20 01:11:47;;;;;;;8.45;1.85;;;;;;;;;;4985462;28;20729;-62
2023/09/20 01:14:41;;;;;;;14.73;2.60;;;;;;;;;;4998386;28;20054;-63
2023/09/20 01:17:29;;;;;;;8.38;2.25;;;;;;;;;;4996361;28;20117;-62
2023/09/20 01:20:39;;;;;;;14.68;2.45;;;;;;;;;;4997879;28;20066;-58
2023/09/20 01:23:32;;;;;;;12.82;2.22;;;;;;;;;;4997649;28;20050;-51
2023/09/20 01:26:25;;;;;;;6.57;1.90;;;;;;;;;;4993330;28;20264;-48
2023/09/20 01:29:12;;;;;;;10.40;2.00;;;;;;;;;;4990600;28;21984;-48
2023/09/20 01:32:06;;;;;;;8.43;2.90;;;;;;;;;;4992852;28;20050;-48
2023/09/20 01:34:55;;;;;;;10.88;2.42;;;;;;;;;;4995649;28;20099;-50
2023/09/20 01:37:49;;;;;;;7.57;2.42;;;;;;;;;;4997126;28;20058;-50
2023/09/20 01:40:35;;;;;;;7.75;1.92;;;;;;;;;;4992619;28;20481;-65
2023/09/20 01:43:30;;;;;;;7.05;2.00;;;;;;;;;;4972090;28;20054;-60
2023/09/20 01:46:16;;;;;;;12.93;2.67;;;;;;;;;;4992262;28;20057;-59
2023/09/20 01:49:10;;;;;;;6.70;2.17;;;;;;;;;;4992845;28;20049;-59
2023/09/20 01:51:58;;;;;;;16.52;2.53;;;;;;;;;;5000584;28;20053;-58
2023/09/20 01:54:55;;;;;;;11.70;2.70;;;;;;;;;;4991515;28;20057;-58
2023/09/20 01:57:39;;;;;;;12.40;2.65;;;;;;;;;;4987204;28;20054;-57
2023/09/20 02:00:36;;;;;;;6.20;1.90;;;;;;;;;;4994499;28;20080;-61
2023/09/20 02:03:21;;;;;;;13.38;3.17;;;;;;;;;;4997126;28;20058;-61
2023/09/20 02:06:15;;;;;;;11.43;2.13;;;;;;;;;;4996458;28;20072;-61
2023/09/20 02:09:04;;;;;;;6.35;2.08;;;;;;;;;;4995275;28;20564;-62
2023/09/20 02:11:55;;;;;;;7.72;2.25;;;;;;;;;;4991280;28;20053;-62
2023/09/20 02:14:43;;;;;;;9.55;1.88;;;;;;;;;;4991303;28;20147;-61
2023/09/20 02:17:36;;;;;;;4.47;1.40;;;;;;;;;;4993553;28;21756;-50
2023/09/20 02:20:44;;;;;;;5.00;1.48;;;;;;;;;;4993813;28;20060;-61
2023/09/20 02:23:38;;;;;;;6.15;2.30;;;;;;;;;;4996628;28;20054;-60
2023/09/20 02:26:26;;;;;;;11.60;2.38;;;;;;;;;;4974919;28;20484;-61
2023/09/20 02:29:22;;;;;;;7.78;2.35;;;;;;;;;;4989494;28;20156;-61
2023/09/20 02:32:14;;;;;;;6.18;2.28;;;;;;;;;;4994870;28;20053;-60
2023/09/20 02:35:08;;;;;;;11.80;2.33;;;;;;;;;;4996182;28;20050;-58
2023/09/20 02:38:04;;;;;;;6.45;2.13;;;;;;;;;;4988558;28;20058;-61
2023/09/20 02:40:56;;;;;;;8.43;2.10;;;;;;;;;;4993460;28;20054;-61
2023/09/20 02:43:43;;;;;;;8.75;2.08;;;;;;;;;;4991336;28;20212;-60
2023/09/20 02:46:38;;;;;;;8.50;2.13;;;;;;;;;;4991625;28;20050;-61
2023/09/20 02:49:25;;;;;;;8.90;1.80;;;;;;;;;;4992620;28;20136;-61
2023/09/20 02:51:59;;;;;;;8.25;1.88;;;;;;;;;;4992383;28;20113;-61
2023/09/20 02:54:33;;;;;;;6.78;1.92;;;;;;;;;;4985104;28;20058;-61
2023/09/20 02:57:21;;;;;;;5.35;2.00;;;;;;;;;;4990823;28;20045;-60
2023/09/20 03:00:21;;;;;;;7.15;2.08;;;;;;;;;;4992431;28;20153;-58
2023/09/20 03:03:08;;;;;;;4.47;1.45;;;;;;;;;;4995118;28;20053;-58
2023/09/20 03:06:09;;;;;;;3.70;1.55;;;;;;;;;;4984627;28;20116;-58
2023/09/20 03:08:56;;;;;;;6.22;1.48;;;;;;;;;;4994829;28;20058;-59
2023/09/20 03:11:51;;;;;;;4.35;1.50;;;;;;;;;;4998313;28;20050;-59
2023/09/20 03:14:38;;;;;;;6.22;1.45;;;;;;;;;;4997405;28;20061;-61
2023/09/20 03:17:32;;;;;;;5.03;1.50;;;;;;;;;;5004525;28;20062;-61
2023/09/20 03:20:24;;;;;;;5.47;1.38;;;;;;;;;;4996973;28;20061;-60
2023/09/20 03:23:23;;;;;;;4.00;1.30;;;;;;;;;;4981713;28;20058;-61
2023/09/20 03:26:10;;;;;;;8.70;1.48;;;;;;;;;;4980338;28;20510;-61
2023/09/20 03:29:04;;;;;;;10.23;1.70;;;;;;;;;;4974657;28;20493;-61
2023/09/20 03:31:52;;;;;;;2.95;1.40;;;;;;;;;;4975291;28;20054;-61
2023/09/20 03:34:48;;;;;;;6.55;1.55;;;;;;;;;;4976853;28;20066;-62
2023/09/20 03:37:36;;;;;;;5.75;1.65;;;;;;;;;;4980308;28;20046;-61
2023/09/20 03:40:28;;;;;;;9.75;1.55;;;;;;;;;;4972110;28;20058;-62
2023/09/20 03:43:14;;;;;;;6.10;1.48;;;;;;;;;;4976784;28;20058;-62
2023/09/20 03:46:07;;;;;;;6.88;1.95;;;;;;;;;;4979395;28;20861;-62
2023/09/20 03:48:55;;;;;;;5.15;1.70;;;;;;;;;;4978088;28;20553;-59
2023/09/20 03:51:48;;;;;;;9.30;1.80;;;;;;;;;;4975318;28;20058;-62
2023/09/20 03:54:36;;;;;;;6.82;1.38;;;;;;;;;;4974670;28;20054;-62
2023/09/20 03:57:29;;;;;;;6.47;1.50;;;;;;;;;;4973435;28;20066;-61
2023/09/20 04:00:27;;;;;;;6.57;1.70;;;;;;;;;;4973997;28;20793;-61
2023/09/20 04:03:13;;;;;;;10.00;1.83;;;;;;;;;;4973936;28;20152;-61
2023/09/20 04:06:07;;;;;;;6.43;1.40;;;;;;;;;;4976966;28;20157;-54
2023/09/20 04:08:55;;;;;;;5.95;1.50;;;;;;;;;;4973931;28;20050;-52
2023/09/20 04:11:48;;;;;;;7.80;1.70;;;;;;;;;;4978435;28;20074;-51
2023/09/20 04:14:35;;;;;;;12.95;1.83;;;;;;;;;;4979304;28;20054;-53
2023/09/20 11:37:12;;;;;;;25.48;4.70;;;;;;;;;;4992608;28;20160;-60
2023/09/20 11:40:06;;;;;;;23.15;4.30;;;;;;;;;;5009030;28;20046;-52
2023/09/20 11:42:54;;;;;;;21.88;5.03;;;;;;;;;;5003008;28;20062;-55
2023/09/20 11:45:52;;;;;;;20.80;4.85;;;;;;;;;;5001159;28;20112;-58
2023/09/20 11:48:37;;;;;;;26.30;5.28;;;;;;;;;;5002310;28;20081;-58
2023/09/20 11:51:31;;;;;;;22.45;4.72;;;;;;;;;;5007765;28;20064;-57
2023/09/20 11:54:18;;;;;;;23.48;5.05;;;;;;;;;;5006792;28;20053;-57
2023/09/20 11:57:16;;;;;;;24.35;5.15;;;;;;;;;;5003773;28;20084;-60
2023/09/20 12:00:03;;;;;;;23.33;4.60;;;;;;;;;;5006423;28;20065;-57
2023/09/20 12:02:58;;;;;;;31.40;4.93;;;;;;;;;;5004821;28;20049;-57
2023/09/20 12:05:47;;;;;;;26.70;6.05;;;;;;;;;;5003965;28;20501;-57
2023/09/20 12:08:41;;;;;;;28.00;5.20;;;;;;;;;;5007295;28;20115;-60
2023/09/20 12:11:35;;;;;;;23.20;4.82;;;;;;;;;;5002788;28;20115;-59
2023/09/20 12:14:23;;;;;;;26.60;5.60;;;;;;;;;;5006779;28;20046;-66
2023/09/20 12:17:31;;;;;;;23.10;4.80;;;;;;;;;;5005292;28;20054;-66
2023/09/20 12:20:35;;;;;;;18.25;4.70;;;;;;;;;;5002814;28;20085;-66
2023/09/20 12:23:20;;;;;;;20.08;3.90;;;;;;;;;;5004265;28;20140;-66
2023/09/20 12:26:14;;;;;;;20.23;3.90;;;;;;;;;;5005143;28;20056;-61
2023/09/20 12:29:01;;;;;;;19.42;4.25;;;;;;;;;;5006685;28;20109;-53
2023/09/20 12:31:55;;;;;;;19.55;4.28;;;;;;;;;;5005221;28;20058;-51
2023/09/20 12:34:42;;;;;;;18.60;4.32;;;;;;;;;;5003315;28;20111;-50
2023/09/20 12:37:42;;;;;;;23.15;5.28;;;;;;;;;;5001840;28;20050;-50
2023/09/20 12:40:29;;;;;;;21.52;4.32;;;;;;;;;;5003709;28;20053;-53
2023/09/20 12:43:23;;;;;;;22.73;5.00;;;;;;;;;;5007288;28;20450;-66
2023/09/20 12:46:11;;;;;;;23.30;4.32;;;;;;;;;;5000589;28;20112;-65
2023/09/20 12:49:05;;;;;;;21.95;4.38;;;;;;;;;;5002699;28;20116;-67
2023/09/20 12:51:52;;;;;;;21.60;4.70;;;;;;;;;;5004597;28;20081;-65
2023/09/20 12:54:46;;;;;;;24.85;4.35;;;;;;;;;;5001780;28;20497;-52
2023/09/20 12:57:33;;;;;;;26.85;4.22;;;;;;;;;;5003992;28;20140;-62
2023/09/20 13:00:26;;;;;;;19.33;3.67;;;;;;;;;;5005129;28;20057;-63
2023/09/20 13:03:15;;;;;;;18.23;4.25;;;;;;;;;;4988816;28;20349;-62
2023/09/20 13:06:13;;;;;;;24.92;4.45;;;;;;;;;;5002160;28;20058;-63
2023/09/20 13:08:57;;;;;;;15.98;3.50;;;;;;;;;;4998414;28;20132;-63
2023/09/20 13:11:52;;;;;;;23.33;4.53;;;;;;;;;;5004721;28;20509;-62
2023/09/20 13:14:40;;;;;;;17.95;3.42;;;;;;;;;;5003420;28;20422;-64
2023/09/20 13:17:34;;;;;;;17.52;3.88;;;;;;;;;;4999893;28;20054;-64
2023/09/20 13:20:22;;;;;;;17.40;3.25;;;;;;;;;;5000798;28;20584;-64
2023/09/20 13:23:15;;;;;;;9.90;2.80;;;;;;;;;;5002534;28;20885;-63
2023/09/20 13:26:03;;;;;;;14.32;2.88;;;;;;;;;;5001577;28;20057;-62
2023/09/20 13:28:56;;;;;;;10.82;3.17;;;;;;;;;;5003809;28;20046;-62
2023/09/20 13:31:44;;;;;;;13.63;2.88;;;;;;;;;;4998771;28;20506;-62
2023/09/20 13:34:38;;;;;;;12.75;3.15;;;;;;;;;;5003995;28;20510;-62
2023/09/20 13:37:30;;;;;;;15.65;3.40;;;;;;;;;;4989289;28;20102;-62
2023/09/20 13:40:26;;;;;;;12.85;2.58;;;;;;;;;;4984213;28;20058;-53
2023/09/20 13:43:13;;;;;;;11.95;2.65;;;;;;;;;;4982317;28;20615;-49
2023/09/20 13:46:14;;;;;;;13.57;3.05;;;;;;;;;;4986033;28;20057;-52
2023/09/20 13:49:02;;;;;;;11.38;2.78;;;;;;;;;;4983816;28;20063;-51
2023/09/20 13:51:57;;;;;;;13.13;2.90;;;;;;;;;;4986762;28;20790;-60
2023/09/20 13:54:50;;;;;;;17.88;3.80;;;;;;;;;;4981462;28;20054;-60
2023/09/20 13:57:38;;;;;;;17.33;3.60;;;;;;;;;;4977981;28;20050;-60
2023/09/20 14:00:31;;;;;;;18.55;3.60;;;;;;;;;;4985829;28;20054;-60
2023/09/20 14:03:26;;;;;;;18.48;4.20;;;;;;;;;;4982951;28;20113;-59
2023/09/20 14:05:54;;;;;;;15.70;3.13;;;;;;;;;;4986879;28;20054;-58
2023/09/20 14:08:29;;;;;;;16.75;3.92;;;;;;;;;;4983001;28;20065;-60
2023/09/20 14:10:57;;;;;;;19.73;4.13;;;;;;;;;;4983025;28;20062;-60
2023/09/20 14:13:24;;;;;;;17.33;3.55;;;;;;;;;;4980427;28;20153;-60
2023/09/20 14:15:59;;;;;;;21.00;4.18;;;;;;;;;;4982566;28;20114;-60
2023/09/20 14:18:27;;;;;;;17.42;4.20;;;;;;;;;;4980822;28;20078;-63
2023/09/20 14:21:21;;;;;;;24.08;4.38;;;;;;;;;;4981833;28;20070;-62
2023/09/20 14:24:08;;;;;;;17.58;4.35;;;;;;;;;;4979718;28;20063;-62
2023/09/20 14:27:02;;;;;;;18.25;4.22;;;;;;;;;;4973513;28;20466;-63
2023/09/20 14:29:49;;;;;;;25.42;4.60;;;;;;;;;;4983569;28;20054;-62
2023/09/20 14:32:46;;;;;;;23.60;4.45;;;;;;;;;;4985609;28;20066;-62
2023/09/20 14:35:34;;;;;;;20.88;4.88;;;;;;;;;;4982789;28;20050;-62
2023/09/20 14:38:35;;;;;;;16.23;4.20;;;;;;;;;;4983686;28;20104;-58
2023/09/20 14:41:22;;;;;;;19.00;4.05;;;;;;;;;;4982331;28;20069;-58
2023/09/20 14:44:17;;;;;;;20.38;4.15;;;;;;;;;;4980721;28;20117;-58
2023/09/20 14:47:04;;;;;;;19.10;4.38;;;;;;;;;;4975276;28;20054;-63
2023/09/20 14:49:58;;;;;;;19.23;4.57;;;;;;;;;;4983043;28;20058;-63
2023/09/20 14:52:46;;;;;;;22.48;4.28;;;;;;;;;;4984852;28;20145;-63
2023/09/20 14:55:20;;;;;;;23.65;4.53;;;;;;;;;;4985914;28;20058;-63
2023/09/20 14:57:55;;;;;;;18.52;4.07;;;;;;;;;;4980247;28;20118;-63
2023/09/20 15:00:29;;;;;;;20.20;4.60;;;;;;;;;;4982295;28;20058;-64
2023/09/20 15:03:17;;;;;;;22.13;3.87;;;;;;;;;;4982267;28;20072;-64
2023/09/20 15:05:51;;;;;;;26.73;4.20;;;;;;;;;;4985006;28;20121;-59
2023/09/20 15:08:38;;;;;;;21.25;3.90;;;;;;;;;;4984324;28;20062;-64
2023/09/20 15:11:32;;;;;;;15.57;3.45;;;;;;;;;;4978143;28;20055;-65
2023/09/20 15:14:19;;;;;;;16.85;4.05;;;;;;;;;;4982770;28;20059;-64
2023/09/20 15:16:57;;;;;;;18.17;4.25;;;;;;;;;;4986566;28;20061;-64
2023/09/20 15:19:43;;;;;;;19.10;3.72;;;;;;;;;;4963360;28;20566;-65
2023/09/20 15:22:37;;;;;;;17.23;3.90;;;;;;;;;;4984622;28;20055;-64
2023/09/20 15:25:25;;;;;;;20.20;3.95;;;;;;;;;;4983330;28;20050;-64
2023/09/20 15:28:18;;;;;;;22.58;3.88;;;;;;;;;;4985186;28;20050;-49
2023/09/20 15:31:05;;;;;;;18.38;3.67;;;;;;;;;;4985015;28;20097;-52
2023/09/20 15:34:00;;;;;;;18.63;3.67;;;;;;;;;;4985189;28;20193;-48
2023/09/20 15:36:52;;;;;;;20.15;3.67;;;;;;;;;;4991391;28;20862;-50
2023/09/20 15:39:54;;;;;;;17.10;3.38;;;;;;;;;;5007213;28;20157;-49
2023/09/20 15:42:44;;;;;;;14.38;3.22;;;;;;;;;;5005650;28;20089;-63
2023/09/20 15:45:37;;;;;;;21.45;4.00;;;;;;;;;;4996031;28;20057;-61
2023/09/20 15:48:24;;;;;;;17.27;4.00;;;;;;;;;;5000489;28;20587;-62
2023/09/20 15:51:20;;;;;;;18.52;3.90;;;;;;;;;;5002247;28;20046;-62
2023/09/20 15:54:07;;;;;;;18.67;3.85;;;;;;;;;;5005878;28;20077;-62
2023/09/20 15:57:01;;;;;;;18.23;3.70;;;;;;;;;;5002448;28;20616;-62
2023/09/20 15:59:48;;;;;;;22.10;3.78;;;;;;;;;;5007355;28;20120;-62
2023/09/20 16:02:43;;;;;;;15.80;3.08;;;;;;;;;;5004135;28;20486;-50
2023/09/20 16:05:31;;;;;;;21.48;3.85;;;;;;;;;;5006922;28;20041;-62
2023/09/20 16:08:32;;;;;;;20.80;3.53;;;;;;;;;;5006757;28;20453;-61
2023/09/20 16:11:18;;;;;;;14.60;3.28;;;;;;;;;;4980798;28;20054;-61
2023/09/20 16:14:13;;;;;;;24.63;4.05;;;;;;;;;;5004096;28;20064;-61
2023/09/20 16:17:02;;;;;;;21.35;4.72;;;;;;;;;;5002106;28;20050;-62
2023/09/20 16:19:54;;;;;;;27.13;4.75;;;;;;;;;;4999904;28;20068;-62
2023/09/20 16:22:48;;;;;;;19.88;3.85;;;;;;;;;;4994515;28;20505;-63
2023/09/20 16:25:22;;;;;;;21.55;4.03;;;;;;;;;;5002214;28;20513;-63
2023/09/20 16:27:55;;;;;;;22.25;4.38;;;;;;;;;;5000497;28;20081;-62
2023/09/20 16:30:50;;;;;;;20.65;4.70;;;;;;;;;;4996146;28;20062;-63
2023/09/20 16:33:46;;;;;;;17.02;4.05;;;;;;;;;;4986188;28;20112;-62
2023/09/20 16:36:37;;;;;;;20.00;4.15;;;;;;;;;;4990935;28;20625;-62
2023/09/20 16:39:41;;;;;;;19.27;4.13;;;;;;;;;;4991260;28;20085;-59
2023/09/20 16:42:35;;;;;;;14.80;3.90;;;;;;;;;;4991346;28;20065;-63
2023/09/20 16:45:23;;;;;;;10.88;3.70;;;;;;;;;;4993333;28;20580;-62
2023/09/20 16:48:16;;;;;;;12.52;3.75;;;;;;;;;;4988989;28;20062;-62
2023/09/20 16:51:04;;;;;;;7.22;3.25;;;;;;;;;;4991552;28;20517;-63
2023/09/20 16:53:56;;;;;;;8.20;3.22;;;;;;;;;;4999394;28;20050;-62
2023/09/20 16:56:51;;;;;;;10.10;3.30;;;;;;;;;;5001220;28;20054;-61
2023/09/20 16:59:38;;;;;;;7.47;3.58;;;;;;;;;;5002613;28;20054;-63
2023/09/20 17:02:33;;;;;;;9.43;4.10;;;;;;;;;;4998603;28;20054;-62
2023/09/20 17:05:26;;;;;;;15.25;5.00;;;;;;;;;;5001426;28;20473;-64
2023/09/20 17:08:20;;;;;;;13.48;6.13;;;;;;;;;;5000806;28;20057;-63
2023/09/20 17:11:09;;;;;;;13.95;6.13;;;;;;;;;;4999766;28;20042;-64
2023/09/20 17:14:02;;;;;;;19.98;7.25;;;;;;;;;;5003230;28;20141;-58
2023/09/20 17:16:51;;;;;;;17.30;7.47;;;;;;;;;;5000381;28;20066;-62
2023/09/20 17:19:43;;;;;;;27.08;7.40;;;;;;;;;;5001730;28;20053;-61
2023/09/20 17:22:31;;;;;;;19.27;6.03;;;;;;;;;;4995683;28;20502;-61
2023/09/20 17:25:24;;;;;;;19.20;6.95;;;;;;;;;;4995966;28;20049;-62
2023/09/20 17:28:13;;;;;;;33.40;8.50;;;;;;;;;;4999503;28;20053;-61
2023/09/20 17:31:05;;;;;;;19.92;7.22;;;;;;;;;;4996795;28;20061;-61
2023/09/20 17:33:55;;;;;;;27.42;7.57;;;;;;;;;;4997991;28;20053;-52
2023/09/20 17:36:59;;;;;;;25.25;7.05;;;;;;;;;;4993404;28;20117;-62
2023/09/20 17:39:54;;;;;;;25.30;7.50;;;;;;;;;;4977578;28;20057;-62
2023/09/20 17:42:49;;;;;;;27.52;8.30;;;;;;;;;;4981695;28;20069;-61
2023/09/20 17:45:35;;;;;;;23.73;7.57;;;;;;;;;;4977077;28;20109;-61
2023/09/20 17:48:29;;;;;;;22.85;7.43;;;;;;;;;;4980354;28;20247;-61
2023/09/20 17:51:23;;;;;;;19.40;7.57;;;;;;;;;;4979011;28;20148;-46
2023/09/20 17:54:10;;;;;;;25.15;7.05;;;;;;;;;;4981490;28;21553;-60
2023/09/20 17:57:04;;;;;;;25.48;7.75;;;;;;;;;;4978859;28;20053;-60
2023/09/20 17:59:51;;;;;;;24.17;7.38;;;;;;;;;;4978845;28;20085;-60
2023/09/20 18:02:46;;;;;;;22.60;7.07;;;;;;;;;;4979034;28;20062;-60
2023/09/20 18:05:33;;;;;;;24.50;7.20;;;;;;;;;;4979748;28;20502;-60
2023/09/20 18:08:27;;;;;;;28.55;7.35;;;;;;;;;;4976232;28;20166;-60
2023/09/20 18:11:15;;;;;;;25.77;7.43;;;;;;;;;;4978066;28;20054;-51
2023/09/20 18:14:09;;;;;;;20.63;7.55;;;;;;;;;;4977470;28;20137;-50
2023/09/20 18:16:57;;;;;;;20.57;7.33;;;;;;;;;;4976711;28;20062;-47
2023/09/20 18:19:53;;;;;;;22.42;7.68;;;;;;;;;;4976409;28;20302;-48
2023/09/20 18:22:39;;;;;;;28.27;8.98;;;;;;;;;;4975542;28;20113;-48
2023/09/20 18:25:36;;;;;;;26.38;8.63;;;;;;;;;;4976952;28;20062;-48
2023/09/20 18:28:25;;;;;;;28.30;8.35;;;;;;;;;;4972951;28;20140;-61
2023/09/20 18:31:18;;;;;;;27.33;9.82;;;;;;;;;;4978816;28;20069;-61
2023/09/20 18:34:13;;;;;;;28.42;8.27;;;;;;;;;;4976545;28;20054;-62
2023/09/20 18:37:08;;;;;;;25.42;8.63;;;;;;;;;;4978251;28;20114;-61
2023/09/20 18:40:00;;;;;;;29.33;9.02;;;;;;;;;;4974466;28;20124;-61
2023/09/20 18:42:48;;;;;;;23.40;8.55;;;;;;;;;;4981489;28;20481;-61
2023/09/20 18:45:43;;;;;;;29.73;9.13;;;;;;;;;;4983644;28;20490;-62
2023/09/20 18:48:29;;;;;;;34.22;10.45;;;;;;;;;;4979226;28;20150;-63
2023/09/20 18:51:24;;;;;;;26.30;10.65;;;;;;;;;;4985558;28;20055;-46
2023/09/20 18:54:13;;;;;;;26.58;10.10;;;;;;;;;;4983391;28;20089;-45
2023/09/20 18:57:03;;;;;;;30.85;10.60;;;;;;;;;;4977478;28;20132;-51
2023/09/20 18:59:51;;;;;;;27.80;10.60;;;;;;;;;;4977869;28;20081;-50
2023/09/20 19:02:45;;;;;;;26.27;11.40;;;;;;;;;;4980671;28;20066;-49
2023/09/20 19:05:39;;;;;;;30.80;11.38;;;;;;;;;;4979210;28;20141;-58
2023/09/20 19:08:31;;;;;;;37.00;10.82;;;;;;;;;;4974318;28;20058;-59
2023/09/20 19:11:26;;;;;;;30.13;12.52;;;;;;;;;;4978258;28;20066;-59
2023/09/20 19:14:17;;;;;;;28.45;10.85;;;;;;;;;;4981612;28;20054;-59
2023/09/20 19:17:12;;;;;;;39.53;11.32;;;;;;;;;;4978993;28;20054;-59
2023/09/20 19:19:58;;;;;;;39.28;12.45;;;;;;;;;;4977254;28;20522;-59
2023/09/20 19:22:51;;;;;;;43.72;13.55;;;;;;;;;;4978708;28;20833;-62
2023/09/20 19:25:38;;;;;;;30.60;12.40;;;;;;;;;;4980240;28;20054;-65
2023/09/20 19:28:32;;;;;;;40.47;12.88;;;;;;;;;;4978591;28;20175;-64
2023/09/20 19:31:20;;;;;;;27.23;11.90;;;;;;;;;;4979989;28;20046;-64
2023/09/20 19:34:14;;;;;;;23.42;10.77;;;;;;;;;;4978408;28;20050;-65
2023/09/20 19:37:08;;;;;;;26.60;9.82;;;;;;;;;;4984575;28;20049;-65
2023/09/20 19:40:19;;;;;;;31.00;10.88;;;;;;;;;;4995485;28;20066;-64
2023/09/20 19:43:03;;;;;;;23.95;10.18;;;;;;;;;;4989527;28;20729;-63
2023/09/20 19:45:57;;;;;;;25.45;10.85;;;;;;;;;;4996381;28;20644;-48
2023/09/20 19:48:47;;;;;;;23.60;10.43;;;;;;;;;;4996620;28;20200;-52
2023/09/20 19:51:38;;;;;;;28.40;12.20;;;;;;;;;;4997766;28;20062;-47
2023/09/20 19:54:26;;;;;;;27.80;11.93;;;;;;;;;;4998641;28;20135;-52
2023/09/20 19:57:19;;;;;;;24.50;10.70;;;;;;;;;;4997063;28;20058;-47
2023/09/20 20:00:24;;;;;;;24.73;9.25;;;;;;;;;;5002181;28;20383;-58
2023/09/20 20:03:10;;;;;;;26.92;9.35;;;;;;;;;;5002388;28;20061;-48
2023/09/20 20:05:57;;;;;;;25.00;9.93;;;;;;;;;;5003283;28;20144;-51
2023/09/20 20:08:53;;;;;;;22.58;10.05;;;;;;;;;;4998819;28;20726;-54
2023/09/20 20:11:38;;;;;;;23.65;10.18;;;;;;;;;;4990148;28;20565;-51
2023/09/20 20:14:32;;;;;;;30.40;10.50;;;;;;;;;;4989476;28;20069;-51
2023/09/20 20:17:19;;;;;;;32.65;11.20;;;;;;;;;;4998343;28;20057;-58
2023/09/20 20:20:19;;;;;;;28.83;11.95;;;;;;;;;;4991376;28;20054;-62
2023/09/20 20:23:11;;;;;;;20.42;10.38;;;;;;;;;;4998469;28;20438;-58
2023/09/20 20:26:11;;;;;;;30.05;11.93;;;;;;;;;;4995721;28;20164;-58
2023/09/20 20:28:58;;;;;;;23.63;10.55;;;;;;;;;;5000778;28;20053;-58
2023/09/20 20:31:52;;;;;;;23.00;9.48;;;;;;;;;;4998843;28;20065;-59
2023/09/20 20:34:39;;;;;;;23.65;10.25;;;;;;;;;;4984394;28;20081;-58
2023/09/20 20:37:44;;;;;;;23.30;10.45;;;;;;;;;;4996572;28;20546;-63
2023/09/20 20:40:31;;;;;;;27.65;11.25;;;;;;;;;;5000433;28;20116;-54
2023/09/20 20:43:26;;;;;;;21.83;10.30;;;;;;;;;;4997979;28;20069;-49
2023/09/20 20:46:16;;;;;;;27.23;10.05;;;;;;;;;;4995665;28;20060;-51
2023/09/20 20:49:10;;;;;;;25.70;10.38;;;;;;;;;;5000435;28;20057;-49
2023/09/20 20:51:59;;;;;;;21.98;11.07;;;;;;;;;;4999498;28;20057;-51
2023/09/20 20:54:52;;;;;;;26.42;11.75;;;;;;;;;;4999816;28;20568;-48
2023/09/20 20:57:38;;;;;;;22.95;11.13;;;;;;;;;;4999283;28;20748;-60
2023/09/20 21:00:35;;;;;;;20.02;9.80;;;;;;;;;;4996143;28;20089;-60
2023/09/20 21:03:19;;;;;;;26.70;10.95;;;;;;;;;;4998869;28;20054;-61
2023/09/20 21:06:15;;;;;;;20.58;9.15;;;;;;;;;;4999492;28;20474;-60
2023/09/20 21:09:01;;;;;;;18.77;10.18;;;;;;;;;;4988007;28;20174;-60
2023/09/20 21:11:36;;;;;;;30.30;10.32;;;;;;;;;;5001045;28;20054;-60
2023/09/20 21:14:08;;;;;;;21.83;10.40;;;;;;;;;;4990512;28;20058;-60
2023/09/20 21:16:35;;;;;;;25.60;9.68;;;;;;;;;;4999096;28;20061;-51
2023/09/20 21:19:29;;;;;;;21.08;10.80;;;;;;;;;;4995779;28;20524;-49
2023/09/20 21:22:16;;;;;;;26.85;9.85;;;;;;;;;;4994177;28;20113;-52
2023/09/20 21:25:12;;;;;;;20.45;9.23;;;;;;;;;;4990542;28;20054;-52
2023/09/20 21:27:58;;;;;;;25.08;8.93;;;;;;;;;;5001154;28;20157;-51
2023/09/20 21:30:52;;;;;;;20.70;8.30;;;;;;;;;;5000420;28;22226;-61
2023/09/20 21:33:40;;;;;;;17.13;8.65;;;;;;;;;;4992270;28;20065;-54
2023/09/20 21:36:39;;;;;;;22.92;8.65;;;;;;;;;;4992380;28;20062;-59
2023/09/20 21:39:27;;;;;;;16.98;7.97;;;;;;;;;;4970715;28;20073;-59
2023/09/20 21:42:21;;;;;;;19.02;8.80;;;;;;;;;;4966032;28;20063;-59
2023/09/20 21:45:08;;;;;;;21.33;8.55;;;;;;;;;;4979964;28;20058;-59
2023/09/20 21:48:02;;;;;;;20.60;8.60;;;;;;;;;;4980435;28;20671;-59
2023/09/20 21:50:49;;;;;;;23.55;8.32;;;;;;;;;;4980757;28;20435;-54
2023/09/20 21:53:43;;;;;;;17.65;8.23;;;;;;;;;;4978724;28;20514;-62
2023/09/20 21:56:30;;;;;;;24.95;7.90;;;;;;;;;;4982059;28;20493;-62
2023/09/20 21:59:24;;;;;;;22.45;8.05;;;;;;;;;;4981947;28;20054;-62
2023/09/20 22:02:14;;;;;;;22.75;8.05;;;;;;;;;;4979638;28;20050;-61
2023/09/20 22:05:05;;;;;;;17.27;7.50;;;;;;;;;;4983047;28;20061;-62
2023/09/20 22:07:57;;;;;;;19.13;7.68;;;;;;;;;;4981524;28;20116;-60
2023/09/20 22:10:52;;;;;;;23.52;8.45;;;;;;;;;;4980310;28;20422;-64
2023/09/20 22:13:37;;;;;;;19.17;8.07;;;;;;;;;;4977953;28;22601;-58
2023/09/20 22:16:31;;;;;;;22.42;8.57;;;;;;;;;;4979422;28;20502;-58
2023/09/20 22:19:18;;;;;;;19.27;8.23;;;;;;;;;;4972291;28;20580;-59
2023/09/20 22:22:12;;;;;;;21.65;8.23;;;;;;;;;;4978659;28;20112;-58
2023/09/20 22:24:59;;;;;;;26.70;8.55;;;;;;;;;;4977804;28;20062;-58
2023/09/20 22:27:53;;;;;;;23.83;9.63;;;;;;;;;;4975340;28;20122;-54
2023/09/20 22:30:40;;;;;;;29.00;10.38;;;;;;;;;;4974868;28;20054;-59
2023/09/20 22:33:36;;;;;;;32.95;11.43;;;;;;;;;;4974559;28;20055;-59
2023/09/20 22:36:23;;;;;;;25.02;11.45;;;;;;;;;;4976357;28;20640;-59
2023/09/20 22:39:22;;;;;;;26.98;10.93;;;;;;;;;;4973650;28;20059;-60
2023/09/20 22:42:09;;;;;;;30.10;11.05;;;;;;;;;;4978513;28;20050;-59
2023/09/20 22:45:08;;;;;;;25.08;10.75;;;;;;;;;;4978928;28;20081;-60
2023/09/20 22:47:52;;;;;;;32.95;10.73;;;;;;;;;;4971375;28;20129;-48
2023/09/20 22:50:46;;;;;;;25.88;9.93;;;;;;;;;;4976125;28;20501;-49
2023/09/20 22:53:34;;;;;;;18.15;10.10;;;;;;;;;;4977062;28;20475;-49
2023/09/20 22:56:29;;;;;;;19.73;9.18;;;;;;;;;;4978846;28;20081;-49
2023/09/20 22:59:15;;;;;;;23.02;10.02;;;;;;;;;;4975688;28;20057;-50
2023/09/20 23:02:09;;;;;;;25.70;10.93;;;;;;;;;;4978301;28;20062;-46
2023/09/20 23:04:56;;;;;;;25.30;10.90;;;;;;;;;;4977109;28;20824;-62
2023/09/20 23:07:50;;;;;;;23.65;11.32;;;;;;;;;;4976971;28;20113;-59
2023/09/20 23:10:41;;;;;;;27.33;11.02;;;;;;;;;;4968865;28;20117;-58
2023/09/20 23:13:35;;;;;;;20.33;10.20;;;;;;;;;;4973889;28;20663;-59
2023/09/20 23:16:25;;;;;;;20.10;9.18;;;;;;;;;;4973592;28;20922;-59
2023/09/20 23:19:03;;;;;;;19.50;9.27;;;;;;;;;;4976882;28;20145;-59
2023/09/20 23:21:48;;;;;;;22.17;9.10;;;;;;;;;;4974624;28;20105;-57
2023/09/20 23:24:44;;;;;;;27.92;9.80;;;;;;;;;;4977907;28;20105;-53
2023/09/20 23:27:27;;;;;;;28.83;10.80;;;;;;;;;;4974787;28;20113;-52
2023/09/20 23:30:22;;;;;;;15.25;9.25;;;;;;;;;;4978709;28;20049;-56
2023/09/20 23:33:12;;;;;;;20.23;8.57;;;;;;;;;;4979224;28;20058;-51
2023/09/20 23:36:04;;;;;;;16.05;8.18;;;;;;;;;;4977312;28;20566;-51
2023/09/20 23:39:06;;;;;;;20.40;8.13;;;;;;;;;;5001108;28;20092;-50
2023/09/20 23:41:54;;;;;;;23.00;8.57;;;;;;;;;;4996539;28;20057;-61
2023/09/20 23:44:47;;;;;;;25.27;9.38;;;;;;;;;;4999538;28;20465;-57
2023/09/20 23:47:33;;;;;;;14.15;8.40;;;;;;;;;;4997178;28;20064;-58
2023/09/20 23:50:30;;;;;;;24.85;9.10;;;;;;;;;;5006182;28;20573;-58
2023/09/20 23:53:22;;;;;;;14.38;8.40;;;;;;;;;;5003871;28;20145;-58
2023/09/20 23:56:12;;;;;;;20.20;8.82;;;;;;;;;;5006610;28;20181;-58
2023/09/20 23:59:00;;;;;;;19.63;9.83;;;;;;;;;;5005999;28;20057;-50
